createdAt,value
2023-01-17T00:01:45.279Z,97499.00
2023-01-17T00:04:36.676Z,97497.60
2023-01-17T00:07:31.144Z,97497.80
2023-01-17T00:10:09.652Z,97493.80
2023-01-17T00:12:49.404Z,97490.60
2023-01-17T00:15:24.641Z,97478.80
2023-01-17T00:17:58.886Z,97487.60
2023-01-17T00:20:52.256Z,97492.00
2023-01-17T00:23:45.846Z,97495.20
2023-01-17T00:26:21.470Z,97506.60
2023-01-17T00:28:54.207Z,97497.00
2023-01-17T00:31:27.080Z,97501.80
2023-01-17T00:33:59.520Z,97497.20
2023-01-17T00:36:32.035Z,97502.80
2023-01-17T00:39:04.697Z,97498.60
2023-01-17T00:41:37.656Z,97500.40
2023-01-17T00:44:29.128Z,97494.00
2023-01-17T00:47:20.473Z,97491.60
2023-01-17T00:50:11.677Z,97495.60
2023-01-17T00:53:03.114Z,97493.00
2023-01-17T00:55:55.397Z,97496.60
2023-01-17T00:58:46.988Z,97497.00
2023-01-17T01:01:38.609Z,97502.20
2023-01-17T01:04:29.921Z,97490.60
2023-01-17T01:07:21.621Z,97502.00
2023-01-17T01:10:13.115Z,97495.20
2023-01-17T01:13:04.458Z,97497.20
2023-01-17T01:15:56.014Z,97494.20
2023-01-17T01:18:47.258Z,97497.40
2023-01-17T01:21:38.281Z,97507.20
2023-01-17T01:24:29.817Z,97504.80
2023-01-17T01:27:21.457Z,97512.60
2023-01-17T01:30:12.971Z,97507.00
2023-01-17T01:33:04.489Z,97510.60
2023-01-17T01:35:38.880Z,97501.40
2023-01-17T01:38:13.132Z,97501.20
2023-01-17T01:40:53.136Z,97505.60
2023-01-17T01:43:47.957Z,97510.60
2023-01-17T01:46:28.423Z,97511.40
2023-01-17T01:49:07.385Z,97514.80
2023-01-17T01:51:47.199Z,97516.40
2023-01-17T01:54:28.952Z,97508.00
2023-01-17T01:57:08.438Z,97509.00
2023-01-17T01:59:48.799Z,97506.60
2023-01-17T02:02:22.871Z,97496.20
2023-01-17T02:04:57.686Z,97491.80
2023-01-17T02:07:39.116Z,97490.80
2023-01-17T02:10:14.193Z,97486.00
2023-01-17T02:12:49.184Z,97487.20
2023-01-17T02:15:29.574Z,97488.80
2023-01-17T02:18:17.836Z,97484.00
2023-01-17T02:21:33.944Z,97476.60
2023-01-17T02:24:49.117Z,97479.80
2023-01-17T02:27:36.082Z,97480.00
2023-01-17T02:30:36.179Z,97481.20
2023-01-17T02:33:30.237Z,97484.40
2023-01-17T02:36:12.269Z,97478.20
2023-01-17T02:38:58.093Z,97471.20
2023-01-17T02:41:37.388Z,97470.40
2023-01-17T02:44:17.596Z,97467.40
2023-01-17T02:46:53.918Z,97467.20
2023-01-17T02:49:32.761Z,97468.20
2023-01-17T02:52:31.505Z,97458.20
2023-01-17T02:55:21.191Z,97444.00
2023-01-17T02:58:17.000Z,97442.40
2023-01-17T03:01:03.947Z,97452.00
2023-01-17T03:03:48.953Z,97439.60
2023-01-17T03:06:31.427Z,97431.20
2023-01-17T03:09:07.418Z,97459.20
2023-01-17T03:11:42.243Z,97467.40
2023-01-17T03:14:16.099Z,97466.60
2023-01-17T03:16:50.104Z,97470.40
2023-01-17T03:19:23.779Z,97462.40
2023-01-17T03:21:57.507Z,97461.20
2023-01-17T03:24:31.561Z,97466.80
2023-01-17T03:27:05.728Z,97460.60
2023-01-17T03:29:39.972Z,97448.60
2023-01-17T03:32:13.738Z,97447.20
2023-01-17T03:34:47.396Z,97452.40
2023-01-17T03:37:21.405Z,97450.40
2023-01-17T03:39:55.732Z,97449.80
2023-01-17T03:42:29.675Z,97452.40
2023-01-17T03:45:03.543Z,97468.40
2023-01-17T03:47:39.033Z,97466.20
2023-01-17T03:50:15.395Z,97463.80
2023-01-17T03:52:49.583Z,97468.80
2023-01-17T03:55:23.574Z,97471.20
2023-01-17T03:57:57.347Z,97472.80
2023-01-17T04:00:31.147Z,97470.80
2023-01-17T04:03:04.969Z,97473.00
2023-01-17T04:05:38.795Z,97476.80
2023-01-17T04:08:12.482Z,97473.20
2023-01-17T04:10:46.327Z,97473.00
2023-01-17T04:13:20.594Z,97477.60
2023-01-17T04:15:55.944Z,97482.00
2023-01-17T04:18:30.889Z,97489.20
2023-01-17T04:21:04.791Z,97497.20
2023-01-17T04:23:38.921Z,97507.80
2023-01-17T04:26:14.732Z,97498.00
2023-01-17T04:28:48.469Z,97502.20
2023-01-17T04:31:22.176Z,97508.20
2023-01-17T04:33:56.003Z,97506.80
2023-01-17T04:36:29.949Z,97499.60
2023-01-17T04:39:04.343Z,97500.40
2023-01-17T04:41:38.637Z,97496.40
2023-01-17T04:44:12.393Z,97504.00
2023-01-17T04:46:46.104Z,97511.20
2023-01-17T04:49:20.193Z,97514.20
2023-01-17T04:51:53.877Z,97515.80
2023-01-17T04:54:27.621Z,97519.60
2023-01-17T04:57:01.471Z,97514.00
2023-01-17T04:59:35.341Z,97514.00
2023-01-17T05:02:09.274Z,97507.80
2023-01-17T05:04:43.693Z,97508.80
2023-01-17T05:07:17.947Z,97505.00
2023-01-17T05:09:51.935Z,97497.20
2023-01-17T05:12:25.990Z,97502.40
2023-01-17T05:14:59.903Z,97510.40
2023-01-17T05:17:33.660Z,97500.20
2023-01-17T05:20:10.449Z,97503.80
2023-01-17T05:22:44.058Z,97493.00
2023-01-17T05:25:18.269Z,97492.00
2023-01-17T05:27:52.043Z,97493.20
2023-01-17T05:30:26.336Z,97490.40
2023-01-17T05:33:01.619Z,97490.60
2023-01-17T05:35:36.657Z,97491.80
2023-01-17T05:38:10.413Z,97491.00
2023-01-17T05:40:44.227Z,97498.00
2023-01-17T05:43:18.193Z,97498.00
2023-01-17T05:45:53.508Z,97496.80
2023-01-17T05:48:27.236Z,97490.00
2023-01-17T05:51:01.994Z,97497.20
2023-01-17T05:53:35.995Z,97493.40
2023-01-17T05:56:10.450Z,97495.60
2023-01-17T05:58:44.242Z,97496.80
2023-01-17T06:01:19.726Z,97502.80
2023-01-17T06:03:53.580Z,97507.80
2023-01-17T06:06:27.388Z,97506.60
2023-01-17T06:09:01.816Z,97517.80
2023-01-17T06:11:36.142Z,97520.60
2023-01-17T06:14:11.033Z,97526.40
2023-01-17T06:16:44.958Z,97530.00
2023-01-17T06:19:18.651Z,97528.40
2023-01-17T06:21:52.546Z,97533.20
2023-01-17T06:24:26.335Z,97535.40
2023-01-17T06:27:00.255Z,97543.40
2023-01-17T06:29:34.106Z,97541.20
2023-01-17T06:32:08.798Z,97547.60
2023-01-17T06:34:43.680Z,97540.40
2023-01-17T06:37:17.460Z,97543.60
2023-01-17T06:39:51.889Z,97548.60
2023-01-17T06:42:26.200Z,97550.80
2023-01-17T06:45:00.271Z,97555.20
2023-01-17T06:47:34.149Z,97560.40
2023-01-17T06:50:10.091Z,97562.00
2023-01-17T06:52:44.701Z,97560.80
2023-01-17T06:55:18.572Z,97565.80
2023-01-17T06:57:52.643Z,97572.20
2023-01-17T07:00:29.515Z,97580.20
2023-01-17T07:03:03.586Z,97586.80
2023-01-17T07:05:41.632Z,97584.60
2023-01-17T07:08:17.156Z,97593.60
2023-01-17T07:10:51.702Z,97595.60
2023-01-17T07:13:25.895Z,97607.40
2023-01-17T07:16:01.278Z,97611.60
2023-01-17T07:18:36.937Z,97611.40
2023-01-17T07:21:17.493Z,97614.80
2023-01-17T07:23:51.423Z,97620.20
2023-01-17T07:26:25.369Z,97621.00
2023-01-17T07:28:59.635Z,97624.80
2023-01-17T07:31:35.426Z,97623.00
2023-01-17T07:34:09.625Z,97624.80
2023-01-17T07:36:43.876Z,97629.40
2023-01-17T07:39:18.436Z,97636.00
2023-01-17T07:41:52.404Z,97638.80
2023-01-17T07:44:26.932Z,97636.80
2023-01-17T07:47:00.995Z,97640.00
2023-01-17T07:49:34.748Z,97641.80
2023-01-17T07:52:09.171Z,97634.00
2023-01-17T07:54:43.070Z,97635.20
2023-01-17T07:57:18.137Z,97631.40
2023-01-17T07:59:54.916Z,97635.00
2023-01-17T08:02:28.731Z,97636.80
2023-01-17T08:05:02.689Z,97636.40
2023-01-17T08:07:37.290Z,97635.60
2023-01-17T08:10:18.225Z,97644.20
2023-01-17T08:12:52.963Z,97645.80
2023-01-17T08:15:27.157Z,97648.40
2023-01-17T08:18:01.922Z,97648.60
2023-01-17T08:20:36.063Z,97656.60
2023-01-17T08:23:10.105Z,97660.40
2023-01-17T08:25:45.364Z,97655.00
2023-01-17T08:28:20.666Z,97650.20
2023-01-17T08:30:55.231Z,97661.00
2023-01-17T08:33:29.344Z,97658.60
2023-01-17T08:36:03.983Z,97654.60
2023-01-17T08:38:38.556Z,97658.40
2023-01-17T08:41:13.057Z,97656.80
2023-01-17T08:43:47.762Z,97656.00
2023-01-17T08:46:23.086Z,97657.00
2023-01-17T08:49:01.462Z,97661.20
2023-01-17T08:51:35.507Z,97660.00
2023-01-17T08:54:12.978Z,97660.60
2023-01-17T08:56:47.896Z,97654.40
2023-01-17T08:59:21.912Z,97665.20
2023-01-17T09:01:58.292Z,97669.60
2023-01-17T09:04:32.558Z,97672.00
2023-01-17T09:07:09.081Z,97676.00
2023-01-17T09:09:43.447Z,97668.40
2023-01-17T09:12:17.448Z,97668.20
2023-01-17T09:14:51.961Z,97671.60
2023-01-17T09:17:26.230Z,97668.80
2023-01-17T09:20:00.275Z,97672.20
2023-01-17T09:22:36.032Z,97673.40
2023-01-17T09:25:11.658Z,97674.20
2023-01-17T09:27:49.315Z,97671.60
2023-01-17T09:30:24.341Z,97671.80
2023-01-17T09:32:58.700Z,97666.40
2023-01-17T09:35:32.532Z,97662.40
2023-01-17T09:38:09.602Z,97659.00
2023-01-17T09:40:50.392Z,97653.20
2023-01-17T09:43:45.902Z,97645.40
2023-01-17T09:46:26.957Z,97646.40
2023-01-17T09:49:13.059Z,97651.40
2023-01-17T09:51:47.198Z,97655.20
2023-01-17T09:54:28.750Z,97648.60
2023-01-17T09:57:13.171Z,97648.60
2023-01-17T10:00:03.660Z,97645.60
2023-01-17T10:09:24.224Z,97635.20
2023-01-17T10:12:29.901Z,97635.00
2023-01-17T10:15:37.853Z,97625.20
2023-01-17T10:18:36.179Z,97624.80
2023-01-17T10:21:21.732Z,97623.80
2023-01-17T10:24:28.378Z,97616.00
2023-01-17T10:27:17.302Z,97621.00
2023-01-17T10:29:54.340Z,97623.60
2023-01-17T10:32:34.376Z,97613.00
2023-01-17T10:35:23.040Z,97627.80
2023-01-17T10:37:59.767Z,97620.40
2023-01-17T10:40:44.455Z,97618.60
2023-01-17T10:43:28.988Z,97623.40
2023-01-17T10:46:06.044Z,97626.20
2023-01-17T10:48:47.603Z,97624.00
2023-01-17T10:51:44.277Z,97623.00
2023-01-17T10:54:41.914Z,97618.40
2023-01-17T10:57:23.705Z,97620.80
2023-01-17T11:00:02.796Z,97626.60
2023-01-17T11:02:43.523Z,97625.20
2023-01-17T11:05:28.876Z,97622.80
2023-01-17T11:08:06.073Z,97634.80
2023-01-17T11:10:47.119Z,97627.20
2023-01-17T11:13:35.806Z,97634.00
2023-01-17T11:16:19.535Z,97633.60
2023-01-17T11:19:16.498Z,97638.00
2023-01-17T11:22:03.151Z,97635.80
2023-01-17T11:24:41.644Z,97633.40
2023-01-17T11:27:30.841Z,97626.00
2023-01-17T11:30:18.804Z,97625.00
2023-01-17T11:33:06.768Z,97632.20
2023-01-17T11:35:47.705Z,97623.20
2023-01-17T11:38:25.945Z,97629.00
2023-01-17T11:41:21.036Z,97625.00
2023-01-17T11:43:58.292Z,97625.80
2023-01-17T11:46:33.329Z,97625.60
2023-01-17T11:49:07.651Z,97624.20
2023-01-17T11:51:44.858Z,97629.60
2023-01-17T11:54:24.773Z,97631.20
2023-01-17T11:57:05.039Z,97631.60
2023-01-17T11:59:43.894Z,97641.40
2023-01-17T12:03:22.034Z,97633.60
2023-01-17T12:06:09.752Z,97636.60
2023-01-17T12:09:04.560Z,97630.20
2023-01-17T12:12:05.366Z,97635.80
2023-01-17T12:14:57.351Z,97630.40
2023-01-17T12:17:55.277Z,97627.40
2023-01-17T12:20:41.515Z,97632.40
2023-01-17T12:23:47.395Z,97628.40
2023-01-17T12:26:38.868Z,97620.00
2023-01-17T12:29:43.396Z,97617.40
2023-01-17T12:32:48.489Z,97614.00
2023-01-17T12:35:31.764Z,97618.60
2023-01-17T12:38:27.280Z,97615.80
2023-01-17T12:41:12.735Z,97610.60
2023-01-17T12:43:48.042Z,97610.00
2023-01-17T12:46:30.212Z,97612.80
2023-01-17T12:49:25.282Z,97616.40
2023-01-17T12:52:13.047Z,97612.60
2023-01-17T12:54:54.676Z,97617.80
2023-01-17T12:57:35.497Z,97622.20
2023-01-17T13:00:19.937Z,97612.40
2023-01-17T13:03:02.832Z,97617.20
2023-01-17T13:05:43.011Z,97620.60
2023-01-17T13:08:30.456Z,97635.40
2023-01-17T13:11:13.085Z,97640.80
2023-01-17T13:13:51.422Z,97640.80
2023-01-17T13:16:34.348Z,97640.00
2023-01-17T13:19:21.652Z,97649.60
2023-01-17T13:21:57.887Z,97660.00
2023-01-17T13:24:43.523Z,97665.60
2023-01-17T13:28:14.829Z,97675.60
2023-01-17T13:31:40.321Z,97677.00
2023-01-17T13:34:44.355Z,97687.80
2023-01-17T13:37:53.254Z,97705.80
2023-01-17T13:40:37.152Z,97715.00
2023-01-17T13:43:22.593Z,97723.00
2023-01-17T13:46:00.448Z,97735.60
2023-01-17T13:48:38.452Z,97744.00
2023-01-17T13:51:14.589Z,97742.00
2023-01-17T13:53:52.459Z,97732.80
2023-01-17T13:56:36.229Z,97735.20
2023-01-17T13:59:31.420Z,97720.80
2023-01-17T14:02:27.480Z,97717.80
2023-01-17T14:05:23.206Z,97723.40
2023-01-17T14:08:03.554Z,97720.20
2023-01-17T14:10:45.258Z,97726.60
2023-01-17T14:13:38.632Z,97734.60
2023-01-17T14:16:31.433Z,97748.20
2023-01-17T14:19:06.259Z,97755.80
2023-01-17T14:21:40.752Z,97762.40
2023-01-17T14:24:21.448Z,97776.40
2023-01-17T14:27:14.449Z,97778.40
2023-01-17T14:30:00.845Z,97787.40
2023-01-17T14:32:39.585Z,97798.00
2023-01-17T14:35:28.439Z,97810.40
2023-01-17T14:38:05.548Z,97816.60
2023-01-17T14:40:43.377Z,97833.00
2023-01-17T14:43:22.499Z,97837.80
2023-01-17T14:46:05.291Z,97841.40
2023-01-17T14:48:44.481Z,97846.20
2023-01-17T14:51:23.194Z,97854.00
2023-01-17T14:54:05.338Z,97858.40
2023-01-17T14:56:40.904Z,97858.20
2023-01-17T14:59:24.083Z,97866.20
2023-01-17T15:02:08.206Z,97865.60
2023-01-17T15:04:43.082Z,97879.20
2023-01-17T15:07:20.888Z,97875.80
2023-01-17T15:09:55.519Z,97890.00
2023-01-17T15:12:29.968Z,97893.00
2023-01-17T15:15:05.700Z,97901.20
2023-01-17T15:17:39.843Z,97903.60
2023-01-17T15:20:22.210Z,97904.80
2023-01-17T15:22:56.125Z,97902.80
2023-01-17T15:25:30.637Z,97904.00
2023-01-17T15:28:06.865Z,97910.20
2023-01-17T15:30:58.310Z,97911.00
2023-01-17T15:33:35.938Z,97898.80
2023-01-17T15:36:18.733Z,97899.80
2023-01-17T15:39:00.282Z,97899.60
2023-01-17T15:41:38.667Z,97904.40
2023-01-17T15:44:31.141Z,97904.40
2023-01-17T15:47:29.870Z,97912.80
2023-01-17T15:50:27.964Z,97918.20
2023-01-17T15:53:04.809Z,97915.00
2023-01-17T15:55:41.039Z,97917.00
2023-01-17T15:58:30.169Z,97910.80
2023-01-17T16:01:04.345Z,97912.20
2023-01-17T16:03:38.527Z,97914.60
2023-01-17T16:06:46.007Z,97915.00
2023-01-17T16:09:27.281Z,97915.20
2023-01-17T16:12:02.031Z,97915.00
2023-01-17T16:14:51.505Z,97911.80
2023-01-17T16:17:31.855Z,97910.40
2023-01-17T16:20:07.117Z,97909.40
2023-01-17T16:22:40.921Z,97900.80
2023-01-17T16:25:21.634Z,97906.00
2023-01-17T16:27:56.151Z,97900.00
2023-01-17T16:30:31.421Z,97896.00
2023-01-17T16:33:05.767Z,97896.80
2023-01-17T16:35:40.343Z,97893.00
2023-01-17T16:38:17.731Z,97896.00
2023-01-17T16:40:52.381Z,97900.20
2023-01-17T16:43:26.280Z,97906.60
2023-01-17T16:46:00.358Z,97907.40
2023-01-17T16:48:34.450Z,97912.40
2023-01-17T16:51:09.984Z,97913.80
2023-01-17T16:53:43.777Z,97911.40
2023-01-17T16:56:21.237Z,97916.80
2023-01-17T16:58:56.414Z,97912.40
2023-01-17T17:01:30.718Z,97910.60
2023-01-17T17:04:04.744Z,97916.60
2023-01-17T17:06:38.684Z,97915.40
2023-01-17T17:09:12.541Z,97917.60
2023-01-17T17:11:47.435Z,97923.00
2023-01-17T17:14:21.872Z,97924.40
2023-01-17T17:16:56.027Z,97928.60
2023-01-17T17:19:30.011Z,97928.80
2023-01-17T17:22:06.759Z,97939.20
2023-01-17T17:24:40.501Z,97944.00
2023-01-17T17:27:14.281Z,97933.20
2023-01-17T17:29:48.397Z,97939.20
2023-01-17T17:32:22.846Z,97936.60
2023-01-17T17:34:56.720Z,97943.20
2023-01-17T17:37:30.661Z,97945.40
2023-01-17T17:40:05.465Z,97950.00
2023-01-17T17:42:39.287Z,97963.00
2023-01-17T17:45:14.686Z,97959.60
2023-01-17T17:47:48.722Z,97960.80
2023-01-17T17:50:22.646Z,97963.60
2023-01-17T17:52:56.818Z,97962.60
2023-01-17T17:55:30.856Z,97963.00
2023-01-17T17:58:04.630Z,97966.20
2023-01-17T18:00:38.532Z,97972.20
2023-01-17T18:03:12.361Z,97970.80
2023-01-17T18:05:47.184Z,97974.60
2023-01-17T18:08:22.832Z,97982.20
2023-01-17T18:11:02.941Z,97983.80
2023-01-17T18:13:37.186Z,97989.80
2023-01-17T18:16:14.682Z,97998.60
2023-01-17T18:18:51.453Z,98001.40
2023-01-17T18:21:28.209Z,98003.80
2023-01-17T18:24:05.263Z,98001.60
2023-01-17T18:26:43.356Z,97999.60
2023-01-17T18:29:19.696Z,98005.00
2023-01-17T18:31:56.024Z,98014.00
2023-01-17T18:34:31.231Z,98006.20
2023-01-17T18:37:05.729Z,98002.40
2023-01-17T18:39:39.860Z,98005.40
2023-01-17T18:42:13.722Z,98015.80
2023-01-17T18:44:48.020Z,98025.00
2023-01-17T18:47:22.170Z,98024.40
2023-01-17T18:49:56.317Z,98030.60
2023-01-17T18:52:30.382Z,98038.60
2023-01-17T18:55:04.365Z,98043.00
2023-01-17T18:57:38.748Z,98035.60
2023-01-17T19:00:16.863Z,98036.20
2023-01-17T19:08:20.667Z,98031.20
2023-01-17T19:10:55.509Z,98029.40
2023-01-17T19:13:30.986Z,98034.40
2023-01-17T19:16:08.046Z,98040.60
2023-01-17T19:18:42.488Z,98052.60
2023-01-17T19:21:19.968Z,98056.80
2023-01-17T19:23:55.252Z,98050.40
2023-01-17T19:26:30.208Z,98051.80
2023-01-17T19:29:05.384Z,98061.60
2023-01-17T19:31:43.316Z,98062.00
2023-01-17T19:34:19.572Z,98055.20
2023-01-17T19:36:55.144Z,98038.40
2023-01-17T19:39:31.188Z,98018.20
2023-01-17T19:42:05.060Z,98019.40
2023-01-17T19:44:38.811Z,98044.60
2023-01-17T19:47:13.550Z,98061.60
2023-01-17T19:49:47.337Z,98062.40
2023-01-17T19:52:22.478Z,98055.80
2023-01-17T19:54:56.741Z,98050.40
2023-01-17T19:57:35.014Z,98050.40
2023-01-17T20:00:14.378Z,98042.80
2023-01-17T20:02:49.724Z,98041.80
2023-01-17T20:05:24.262Z,98032.40
2023-01-17T20:07:58.975Z,98027.20
2023-01-17T20:10:33.531Z,98016.20
2023-01-17T20:13:08.137Z,98018.20
2023-01-17T20:15:42.086Z,98016.20
2023-01-17T20:18:16.032Z,98020.80
2023-01-17T20:20:56.866Z,98026.80
2023-01-17T20:23:34.338Z,98034.20
2023-01-17T20:26:09.147Z,98044.40
2023-01-17T20:28:46.790Z,98042.40
2023-01-17T20:31:24.008Z,98047.80
2023-01-17T20:33:58.971Z,98046.20
2023-01-17T20:36:33.257Z,98052.00
2023-01-17T20:39:11.145Z,98053.80
2023-01-17T20:41:46.714Z,98050.60
2023-01-17T20:44:21.109Z,98048.00
2023-01-17T20:46:54.902Z,98040.00
2023-01-17T20:49:29.015Z,98034.20
2023-01-17T20:52:05.795Z,98039.20
2023-01-17T20:54:39.991Z,98046.60
2023-01-17T20:57:13.733Z,98045.60
2023-01-17T20:59:48.584Z,98046.80
2023-01-17T21:02:22.703Z,98054.00
2023-01-17T21:04:56.715Z,98052.40
2023-01-17T21:07:30.679Z,98047.80
2023-01-17T21:10:05.178Z,98044.20
2023-01-17T21:12:39.318Z,98036.80
2023-01-17T21:15:17.678Z,98033.00
2023-01-17T21:17:52.019Z,98027.80
2023-01-17T21:20:27.478Z,98026.20
2023-01-17T21:23:01.376Z,98021.60
2023-01-17T21:25:35.093Z,98027.00
2023-01-17T21:28:09.409Z,98027.20
2023-01-17T21:30:43.464Z,98024.20
2023-01-17T21:33:17.358Z,98017.60
2023-01-17T21:35:54.127Z,98010.40
2023-01-17T21:38:28.172Z,98005.20
2023-01-17T21:41:02.399Z,97997.00
2023-01-17T21:43:36.408Z,97992.40
2023-01-17T21:46:10.886Z,97979.40
2023-01-17T21:48:45.575Z,97976.60
2023-01-17T21:51:21.867Z,97982.80
2023-01-17T21:53:55.943Z,97992.40
2023-01-17T21:56:47.469Z,97996.80
2023-01-17T21:59:21.893Z,98012.40
2023-01-17T22:01:55.960Z,98024.00
2023-01-17T22:04:29.825Z,98016.80
2023-01-17T22:07:03.478Z,98009.80
2023-01-17T22:09:37.170Z,98008.40
2023-01-17T22:12:11.831Z,98005.60
2023-01-17T22:14:45.722Z,98006.60
2023-01-17T22:17:21.077Z,97996.00
2023-01-17T22:19:55.066Z,97989.20
2023-01-17T22:22:32.312Z,97989.20
2023-01-17T22:25:06.640Z,97985.20
2023-01-17T22:27:40.435Z,97986.40
2023-01-17T22:30:16.918Z,97990.80
2023-01-17T22:32:50.878Z,97999.60
2023-01-17T22:35:24.884Z,98002.00
2023-01-17T22:37:58.795Z,97996.40
2023-01-17T22:40:36.428Z,97996.20
2023-01-17T22:43:10.288Z,97997.20
2023-01-17T22:45:45.980Z,97992.60
2023-01-17T22:48:20.194Z,97986.80
2023-01-17T22:50:57.826Z,97986.40
2023-01-17T22:53:32.546Z,97988.80
2023-01-17T22:56:10.737Z,97991.60
2023-01-17T22:58:45.848Z,97989.80
2023-01-17T23:01:22.621Z,97992.80
2023-01-17T23:03:58.901Z,97996.80
2023-01-17T23:06:35.267Z,97987.20
2023-01-17T23:09:12.102Z,97988.40
2023-01-17T23:11:49.973Z,97978.40
2023-01-17T23:14:26.965Z,97971.20
2023-01-17T23:17:20.877Z,97952.40
2023-01-17T23:19:56.117Z,97954.20
2023-01-17T23:22:32.599Z,97951.20
2023-01-17T23:25:11.004Z,97956.40
2023-01-17T23:28:04.591Z,97965.20
2023-01-17T23:30:41.665Z,97971.60
2023-01-17T23:33:17.987Z,97975.20
2023-01-17T23:35:51.733Z,97974.40
2023-01-17T23:38:29.480Z,97967.60
2023-01-17T23:41:27.404Z,97965.40
2023-01-17T23:44:02.009Z,97945.20
2023-01-17T23:46:35.976Z,97932.80
2023-01-17T23:49:10.110Z,97930.20
2023-01-17T23:51:43.771Z,97928.20
2023-01-17T23:54:17.666Z,97921.00
2023-01-17T23:56:51.534Z,97924.40
2023-01-17T23:59:25.731Z,97924.60
